Time;durP1;ratioP1;P1;durP2;ratioP2;P2;SDS_P1;SDS_P2;PMS_P1;PMS_P2;Temp;Humidity;BMP_temperature;BMP_pressure;BME280_temperature;BME280_humidity;BME280_pressure;Samples;Min_cycle;Max_cycle;Signal;HPM_P1;HPM_P2
2023/08/01 00:02:04;;;;;;;;;;;;;;;26.05;100.00;98922.78;5030012;28;19944;-78
2023/08/01 00:04:29;;;;;;;;;;;;;;;26.02;100.00;98926.00;5030160;28;19928;-78
2023/08/01 00:06:55;;;;;;;;;;;;;;;25.99;100.00;98918.41;5029566;28;19944;-78
2023/08/01 00:09:20;;;;;;;;;;;;;;;25.99;100.00;98918.41;5030371;28;19921;-79
2023/08/01 00:11:46;;;;;;;;;;;;;;;25.95;100.00;98914.59;5030324;28;19921;-79
2023/08/01 00:14:11;;;;;;;;;;;;;;;25.92;100.00;98912.41;5029954;28;19917;-79
2023/08/01 00:16:37;;;;;;;;;;;;;;;25.92;100.00;98899.69;5030241;28;19991;-79
2023/08/01 00:19:02;;;;;;;;;;;;;;;25.91;100.00;98906.19;5029737;28;20017;-80
2023/08/01 00:21:30;;;;;;;;;;;;;;;25.91;100.00;98897.25;5030138;28;19957;-79
2023/08/01 00:23:56;;;;;;;;;;;;;;;25.87;100.00;98896.13;5031726;28;20421;-80
2023/08/01 00:26:21;;;;;;;;;;;;;;;25.85;100.00;98887.47;5033874;28;20012;-79
2023/08/01 00:28:46;;;;;;;;;;;;;;;25.84;100.00;98885.84;5033822;28;19964;-79
2023/08/01 00:31:12;;;;;;;;;;;;;;;25.80;100.00;98877.41;5033165;28;19932;-79
2023/08/01 00:33:37;;;;;;;;;;;;;;;25.80;100.00;98879.34;5031683;28;19921;-79
2023/08/01 00:36:08;;;;;;;;;;;;;;;25.78;100.00;98886.88;5033257;28;20012;-79
2023/08/01 00:38:34;;;;;;;;;;;;;;;25.80;100.00;98887.44;5033287;28;20444;-79
2023/08/01 00:40:59;;;;;;;;;;;;;;;25.78;100.00;98876.06;5033180;28;20020;-79
2023/08/01 00:43:24;;;;;;;;;;;;;;;25.73;100.00;98870.63;5032306;28;19975;-79
2023/08/01 00:45:51;;;;;;;;;;;;;;;25.66;100.00;98862.72;5033188;28;19921;-78
2023/08/01 00:48:18;;;;;;;;;;;;;;;25.59;100.00;98862.94;5033009;28;20304;-78
2023/08/01 00:50:44;;;;;;;;;;;;;;;25.55;100.00;98860.97;5033200;28;20400;-79
2023/08/01 00:53:10;;;;;;;;;;;;;;;25.54;100.00;98870.97;5031326;28;19921;-78
2023/08/01 00:55:36;;;;;;;;;;;;;;;25.58;100.00;98866.69;5033160;28;19925;-78
2023/08/01 00:58:03;;;;;;;;;;;;;;;25.66;100.00;98879.75;5012996;28;20365;-78
2023/08/01 01:00:28;;;;;;;;;;;;;;;25.72;100.00;98869.81;5013058;28;19940;-78
2023/08/01 01:02:53;;;;;;;;;;;;;;;25.77;100.00;98869.03;5030442;28;19944;-79
2023/08/01 01:05:20;;;;;;;;;;;;;;;25.68;100.00;98869.47;5029164;28;19921;-78
2023/08/01 01:07:46;;;;;;;;;;;;;;;25.62;100.00;98862.41;5033323;28;20400;-79
2023/08/01 01:10:11;;;;;;;;;;;;;;;25.59;100.00;98867.53;5032866;28;19943;-77
2023/08/01 01:12:37;;;;;;;;;;;;;;;25.55;100.00;98861.78;5033045;28;19921;-79
2023/08/01 01:15:02;;;;;;;;;;;;;;;25.52;100.00;98862.28;5032850;28;19921;-79
2023/08/01 01:17:28;;;;;;;;;;;;;;;25.45;100.00;98850.88;5033459;28;19921;-79
2023/08/01 01:19:54;;;;;;;;;;;;;;;25.41;100.00;98855.16;5032799;28;19960;-78
2023/08/01 01:22:19;;;;;;;;;;;;;;;25.35;100.00;98848.09;5032689;28;19987;-78
2023/08/01 01:24:46;;;;;;;;;;;;;;;25.33;100.00;98835.91;5032907;28;19925;-77
2023/08/01 01:27:12;;;;;;;;;;;;;;;25.13;100.00;98826.53;5014796;28;20343;-79
2023/08/01 01:29:38;;;;;;;;;;;;;;;25.12;100.00;98805.19;5032752;28;19921;-78
2023/08/01 01:32:04;;;;;;;;;;;;;;;25.01;100.00;98811.56;5032473;28;20262;-78
2023/08/01 01:34:30;;;;;;;;;;;;;;;24.99;100.00;98802.88;5031460;28;20384;-79
2023/08/01 01:36:55;;;;;;;;;;;;;;;24.98;100.00;98807.47;5031772;28;19963;-78
2023/08/01 01:39:21;;;;;;;;;;;;;;;24.96;100.00;98806.13;5032183;28;20384;-79
2023/08/01 01:41:46;;;;;;;;;;;;;;;24.98;100.00;98801.25;5032427;28;19931;-78
2023/08/01 01:44:12;;;;;;;;;;;;;;;24.96;100.00;98806.13;5014296;28;20023;-79
2023/08/01 01:46:37;;;;;;;;;;;;;;;24.88;100.00;98800.09;5014375;28;19975;-79
2023/08/01 01:49:03;;;;;;;;;;;;;;;24.92;100.00;98799.59;5031519;28;19922;-77
2023/08/01 01:51:29;;;;;;;;;;;;;;;24.91;100.00;98795.28;5014024;28;19929;-78
2023/08/01 01:53:54;;;;;;;;;;;;;;;24.82;100.00;98787.59;5013888;28;19968;-78
2023/08/01 01:56:20;;;;;;;;;;;;;;;24.86;100.00;98780.59;5032278;28;19921;-79
2023/08/01 01:58:45;;;;;;;;;;;;;;;24.86;100.00;98772.50;5032349;28;19925;-78
2023/08/01 02:01:11;;;;;;;;;;;;;;;24.86;100.00;98772.50;5031948;28;20035;-79
2023/08/01 02:03:37;;;;;;;;;;;;;;;24.80;100.00;98778.09;5030800;28;19921;-78
2023/08/01 02:06:05;;;;;;;;;;;;;;;24.73;100.00;98772.94;5031566;28;19928;-79
2023/08/01 02:08:31;;;;;;;;;;;;;;;24.71;100.00;98775.06;5031690;28;19928;-79
2023/08/01 02:10:58;;;;;;;;;;;;;;;24.72;100.00;98776.69;5013839;28;19918;-79
2023/08/01 02:13:27;;;;;;;;;;;;;;;24.68;100.00;98770.16;5031976;28;19925;-78
2023/08/01 02:15:53;;;;;;;;;;;;;;;24.69;100.00;98765.56;5023109;28;20067;-79
2023/08/01 02:18:19;;;;;;;;;;;;;;;24.67;100.00;98768.53;5031592;28;20653;-78
2023/08/01 02:20:44;;;;;;;;;;;;;;;24.65;100.00;98762.56;5031383;28;19917;-76
2023/08/01 02:23:10;;;;;;;;;;;;;;;24.62;100.00;98760.38;5029361;28;19925;-77
2023/08/01 02:25:39;;;;;;;;;;;;;;;24.57;100.00;98768.41;5031278;28;20021;-78
2023/08/01 02:28:05;;;;;;;;;;;;;;;24.57;100.00;98768.41;5029716;28;19921;-78
2023/08/01 02:30:31;;;;;;;;;;;;;;;24.55;100.00;98770.56;5023623;28;19924;-78
2023/08/01 02:32:56;;;;;;;;;;;;;;;24.50;100.00;98772.38;5031036;28;19921;-79
2023/08/01 02:35:22;;;;;;;;;;;;;;;24.51;100.00;98774.81;5029649;28;19921;-79
2023/08/01 02:37:47;;;;;;;;;;;;;;;24.49;100.00;98766.16;5031025;28;20331;-79
2023/08/01 02:40:13;;;;;;;;;;;;;;;24.40;100.00;98759.56;5031014;28;19971;-78
2023/08/01 02:42:38;;;;;;;;;;;;;;;24.39;100.00;98753.34;5013533;28;19932;-79
2023/08/01 02:45:04;;;;;;;;;;;;;;;24.29;100.00;98755.13;5030881;28;19921;-78
2023/08/01 02:47:29;;;;;;;;;;;;;;;24.27;100.00;98747.28;5013414;28;20004;-79
2023/08/01 02:49:55;;;;;;;;;;;;;;;24.24;100.00;98746.97;5030764;28;19921;-76
2023/08/01 02:52:20;;;;;;;;;;;;;;;24.20;100.00;98740.47;5031024;28;19921;-78
2023/08/01 02:54:45;;;;;;;;;;;;;;;24.18;100.00;98731.75;5029756;28;19924;-79
2023/08/01 02:57:11;;;;;;;;;;;;;;;24.09;100.00;98737.56;5030956;28;19921;-79
2023/08/01 02:59:36;;;;;;;;;;;;;;;24.04;100.00;98759.06;5029760;28;19918;-78
2023/08/01 03:02:02;;;;;;;;;;;;;;;23.95;100.00;98757.88;5030687;28;19929;-77
2023/08/01 03:04:28;;;;;;;;;;;;;;;23.93;100.00;98762.69;5030892;28;19921;-77
2023/08/01 03:06:53;;;;;;;;;;;;;;;23.92;100.00;98752.16;5031063;28;19932;-78
2023/08/01 03:09:19;;;;;;;;;;;;;;;23.98;100.00;98748.47;5030399;28;19979;-78
2023/08/01 03:11:44;;;;;;;;;;;;;;;23.97;100.00;98736.91;5031066;28;19979;-78
2023/08/01 03:14:10;;;;;;;;;;;;;;;23.95;100.00;98744.41;5030660;28;19922;-78
2023/08/01 03:16:35;;;;;;;;;;;;;;;23.96;100.00;98737.97;5030928;28;19921;-78
2023/08/01 03:19:04;;;;;;;;;;;;;;;23.95;100.00;98733.63;5030656;28;19921;-78
2023/08/01 03:21:33;;;;;;;;;;;;;;;23.92;100.00;98736.81;5029796;28;19925;-79
2023/08/01 03:23:59;;;;;;;;;;;;;;;23.89;100.00;98737.31;5030257;28;19921;-79
2023/08/01 03:26:24;;;;;;;;;;;;;;;23.88;100.00;98727.59;5030737;28;19928;-78
2023/08/01 03:28:50;;;;;;;;;;;;;;;23.87;100.00;98747.53;5030837;28;19928;-79
2023/08/01 03:31:15;;;;;;;;;;;;;;;23.84;100.00;98744.53;5030632;28;19964;-77
2023/08/01 03:33:40;;;;;;;;;;;;;;;23.87;100.00;98747.53;5030994;28;19925;-78
2023/08/01 03:36:07;;;;;;;;;;;;;;;23.85;100.00;98744.28;5012982;28;19944;-78
2023/08/01 03:38:32;;;;;;;;;;;;;;;23.83;100.00;98740.19;5030621;28;19921;-78
2023/08/01 03:40:58;;;;;;;;;;;;;;;23.77;100.00;98736.59;5029102;28;19928;-77
2023/08/01 03:43:23;;;;;;;;;;;;;;;23.77;100.00;98725.84;5030695;28;19921;-78
2023/08/01 03:45:49;;;;;;;;;;;;;;;23.81;100.00;98726.97;5030384;28;19921;-78
2023/08/01 03:48:15;;;;;;;;;;;;;;;23.71;100.00;98732.22;5012802;28;19932;-79
2023/08/01 03:50:40;;;;;;;;;;;;;;;23.73;100.00;98730.09;5030850;28;19922;-79
2023/08/01 03:53:07;;;;;;;;;;;;;;;23.74;100.00;98737.09;5030178;28;19928;-78
2023/08/01 03:55:32;;;;;;;;;;;;;;;23.70;100.00;98741.34;5030726;28;19940;-78
2023/08/01 03:57:58;;;;;;;;;;;;;;;23.64;100.00;98747.72;5030983;28;19921;-79
2023/08/01 04:00:23;;;;;;;;;;;;;;;23.61;100.00;98749.03;5034585;28;20023;-78
2023/08/01 04:02:49;;;;;;;;;;;;;;;23.57;100.00;98747.06;5034415;28;19925;-78
2023/08/01 04:05:14;;;;;;;;;;;;;;;23.54;100.00;98748.41;5034337;28;19932;-79
2023/08/01 04:07:40;;;;;;;;;;;;;;;23.51;100.00;98753.44;5034422;28;19928;-78
2023/08/01 04:10:06;;;;;;;;;;;;;;;23.37;100.00;98765.59;5034048;28;19957;-77
2023/08/01 04:12:32;;;;;;;;;;;;;;;23.37;100.00;98762.88;5034317;28;19928;-78
2023/08/01 04:14:57;;;;;;;;;;;;;;;23.31;100.00;98758.47;5034099;28;19967;-78
2023/08/01 04:17:23;;;;;;;;;;;;;;;23.32;100.00;98760.13;5034314;28;19923;-78
2023/08/01 04:19:48;;;;;;;;;;;;;;;23.25;100.00;98753.00;5034232;28;20024;-79
2023/08/01 04:22:14;;;;;;;;;;;;;;;23.26;100.00;98757.34;5034284;28;19925;-79
2023/08/01 04:24:39;;;;;;;;;;;;;;;23.28;100.00;98759.78;5033944;28;19921;-78
2023/08/01 04:27:05;;;;;;;;;;;;;;;23.27;100.00;98758.94;5033593;28;20011;-78
2023/08/01 04:29:30;;;;;;;;;;;;;;;23.31;100.00;98751.22;5034050;28;19917;-79
2023/08/01 04:31:56;;;;;;;;;;;;;;;23.24;100.00;98740.59;5033826;28;19921;-78
2023/08/01 04:34:22;;;;;;;;;;;;;;;23.27;100.00;98745.50;5034030;28;20015;-79
2023/08/01 04:36:47;;;;;;;;;;;;;;;23.34;100.00;98737.25;5033987;28;19917;-78
2023/08/01 04:39:12;;;;;;;;;;;;;;;23.34;100.00;98741.81;5033226;28;19925;-79
2023/08/01 04:41:38;;;;;;;;;;;;;;;23.35;100.00;98730.00;5033511;28;19917;-77
2023/08/01 04:44:03;;;;;;;;;;;;;;;23.35;100.00;98733.50;5033782;28;19928;-79
2023/08/01 04:46:29;;;;;;;;;;;;;;;23.37;100.00;98726.00;5033818;28;19932;-80
2023/08/01 04:48:54;;;;;;;;;;;;;;;23.37;100.00;98738.66;5033561;28;20004;-80
2023/08/01 04:51:20;;;;;;;;;;;;;;;23.39;100.00;98734.63;5034142;28;19921;-78
2023/08/01 04:53:45;;;;;;;;;;;;;;;23.39;100.00;98739.22;5033959;28;19975;-80
2023/08/01 04:56:11;;;;;;;;;;;;;;;23.39;100.00;98728.44;5033834;28;20019;-79
2023/08/01 04:58:36;;;;;;;;;;;;;;;23.47;100.00;98730.75;5034074;28;19964;-79
2023/08/01 05:01:01;;;;;;;;;;;;;;;23.47;100.00;98720.81;5033937;28;19921;-76
2023/08/01 05:03:27;;;;;;;;;;;;;;;23.49;100.00;98724.09;5016541;28;19928;-79
2023/08/01 05:05:53;;;;;;;;;;;;;;;23.54;100.00;98726.03;5033717;28;19960;-77
2023/08/01 05:08:18;;;;;;;;;;;;;;;23.52;100.00;98720.06;5032055;28;20276;-77
2023/08/01 05:10:44;;;;;;;;;;;;;;;23.58;100.00;98719.06;5032569;28;19975;-79
2023/08/01 05:13:10;;;;;;;;;;;;;;;23.56;100.00;98718.53;5033118;28;19921;-78
2023/08/01 05:15:35;;;;;;;;;;;;;;;23.58;100.00;98713.69;5033821;28;19921;-78
2023/08/01 05:18:00;;;;;;;;;;;;;;;23.61;100.00;98715.91;5033516;28;19961;-78
2023/08/01 05:20:30;;;;;;;;;;;;;;;23.59;100.00;98713.47;5034076;28;20438;-78
2023/08/01 05:22:59;;;;;;;;;;;;;;;23.60;100.00;98703.50;5033412;28;20410;-78
2023/08/01 05:25:24;;;;;;;;;;;;;;;23.59;100.00;98699.16;5033666;28;20277;-77
2023/08/01 05:27:50;;;;;;;;;;;;;;;23.59;100.00;98696.47;5033391;28;19921;-78
2023/08/01 05:30:15;;;;;;;;;;;;;;;23.57;100.00;98685.13;5033494;28;19921;-79
2023/08/01 05:32:41;;;;;;;;;;;;;;;23.56;100.00;98676.22;5033652;28;20025;-79
2023/08/01 05:35:08;;;;;;;;;;;;;;;23.56;100.00;98672.75;5033452;28;20004;-78
2023/08/01 05:37:33;;;;;;;;;;;;;;;23.58;100.00;98686.75;5033702;28;20292;-79
2023/08/01 05:40:01;;;;;;;;;;;;;;;23.56;100.00;98680.84;5032992;28;19925;-79
2023/08/01 05:42:26;;;;;;;;;;;;;;;23.54;100.00;98688.34;5015547;28;20292;-77
2023/08/01 05:44:51;;;;;;;;;;;;;;;23.50;100.00;98700.66;5033228;28;19984;-77
2023/08/01 05:47:17;;;;;;;;;;;;;;;23.48;100.00;98714.38;5033054;28;19929;-77
2023/08/01 05:49:43;;;;;;;;;;;;;;;23.52;100.00;98712.00;5033363;28;19966;-78
2023/08/01 05:52:08;;;;;;;;;;;;;;;23.59;100.00;98715.34;5032988;28;19952;-77
2023/08/01 05:54:33;;;;;;;;;;;;;;;23.59;100.00;98707.25;5033449;28;19921;-78
2023/08/01 05:56:59;;;;;;;;;;;;;;;23.64;100.00;98715.41;5032437;28;19925;-78
2023/08/01 05:59:24;;;;;;;;;;;;;;;23.59;100.00;98712.63;5032537;28;19928;-76
2023/08/01 06:01:50;;;;;;;;;;;;;;;23.57;100.00;98731.72;5026425;28;19921;-78
2023/08/01 06:04:15;;;;;;;;;;;;;;;23.55;100.00;98727.66;5032324;28;19921;-79
2023/08/01 06:06:40;;;;;;;;;;;;;;;23.53;100.00;98732.47;5032265;28;19921;-78
2023/08/01 06:09:06;;;;;;;;;;;;;;;23.37;100.00;98735.97;5031663;28;19975;-78
2023/08/01 06:11:33;;;;;;;;;;;;;;;23.48;100.00;98743.16;5031863;28;19921;-79
2023/08/01 06:13:58;;;;;;;;;;;;;;;23.51;100.00;98751.56;5013438;28;19928;-78
2023/08/01 06:16:24;;;;;;;;;;;;;;;23.62;100.00;98760.63;5031649;28;19921;-79
2023/08/01 06:18:49;;;;;;;;;;;;;;;23.63;100.00;98767.63;5031426;28;19960;-76
2023/08/01 06:21:14;;;;;;;;;;;;;;;23.68;100.00;98759.63;5029931;28;19929;-76
2023/08/01 06:23:40;;;;;;;;;;;;;;;23.75;100.00;98754.06;5029202;28;19921;-76
2023/08/01 06:26:05;;;;;;;;;;;;;;;23.81;100.00;98743.13;5031237;28;19921;-78
2023/08/01 06:28:31;;;;;;;;;;;;;;;23.91;100.00;98737.09;5013805;28;19925;-78
2023/08/01 06:30:56;;;;;;;;;;;;;;;23.96;100.00;98735.28;5031079;28;19970;-77
2023/08/01 06:33:21;;;;;;;;;;;;;;;24.02;100.00;98723.50;5031091;28;19921;-79
2023/08/01 06:35:47;;;;;;;;;;;;;;;24.08;100.00;98711.72;5031379;28;19971;-77
2023/08/01 06:38:13;;;;;;;;;;;;;;;24.14;100.00;98703.69;5029494;28;19944;-78
2023/08/01 06:40:38;;;;;;;;;;;;;;;24.20;100.00;98718.91;5031450;28;20378;-77
2023/08/01 06:43:03;;;;;;;;;;;;;;;24.25;100.00;98716.25;5030760;28;20018;-77
2023/08/01 06:45:29;;;;;;;;;;;;;;;24.30;100.00;98727.09;5031366;28;19925;-75
2023/08/01 06:47:54;;;;;;;;;;;;;;;24.35;100.00;98721.75;5012914;28;19927;-78
2023/08/01 06:50:20;;;;;;;;;;;;;;;24.36;100.00;98726.09;5030899;28;19948;-80
2023/08/01 06:52:45;;;;;;;;;;;;;;;24.38;100.00;98732.06;5032443;28;19928;-79
2023/08/01 06:55:11;;;;;;;;;;;;;;;24.41;100.00;98736.94;5031158;28;19925;-79
2023/08/01 06:57:36;;;;;;;;;;;;;;;24.48;100.00;98727.59;5031017;28;20093;-78
2023/08/01 07:00:02;;;;;;;;;;;;;;;24.50;100.00;98723.84;5022030;28;19952;-77
2023/08/01 07:02:28;;;;;;;;;;;;;;;24.50;100.00;98726.53;5026864;28;20027;-78
2023/08/01 07:04:53;;;;;;;;;;;;;;;24.52;100.00;98727.88;5028694;28;20023;-78
2023/08/01 07:07:19;;;;;;;;;;;;;;;24.60;100.00;98719.34;5029640;28;19965;-78
2023/08/01 07:09:44;;;;;;;;;;;;;;;24.67;100.00;98714.59;5030242;28;19947;-79
2023/08/01 07:12:10;;;;;;;;;;;;;;;24.72;100.00;98728.13;5030660;28;20698;-77
2023/08/01 07:14:35;;;;;;;;;;;;;;;24.70;100.00;98722.16;5028353;28;19925;-76
2023/08/01 07:17:01;;;;;;;;;;;;;;;24.76;100.00;98718.44;5028926;28;19917;-80
2023/08/01 07:19:26;;;;;;;;;;;;;;;24.81;100.00;98705.00;5030098;28;19927;-77
2023/08/01 07:21:52;;;;;;;;;;;;;;;24.85;100.00;98711.53;5029224;28;19928;-77
2023/08/01 07:24:17;;;;;;;;;;;;;;;24.91;100.00;98693.53;5030181;28;19964;-77
2023/08/01 07:26:43;;;;;;;;;;;;;;;24.96;100.00;98679.25;5025669;28;19921;-77
2023/08/01 07:29:11;;;;;;;;;;;;;;;24.95;100.00;98672.22;5030225;28;19929;-78
2023/08/01 07:31:36;;;;;;;;;;;;;;;24.87;100.00;98660.81;5029057;28;19971;-79
2023/08/01 07:34:02;;;;;;;;;;;;;;;24.88;100.00;98661.63;5031690;28;19925;-78
2023/08/01 07:36:27;;;;;;;;;;;;;;;24.87;100.00;98666.19;5034980;28;20614;-80
2023/08/01 07:38:53;;;;;;;;;;;;;;;24.92;100.00;98664.66;5034858;28;19928;-80
2023/08/01 07:41:18;;;;;;;;;;;;;;;24.79;100.00;98657.78;5032510;28;19921;-78
2023/08/01 07:43:44;;;;;;;;;;;;;;;24.88;100.00;98661.63;5034077;28;19999;-79
2023/08/01 07:46:11;;;;;;;;;;;;;;;24.83;100.00;98665.09;5032537;28;19925;-80
2023/08/01 07:48:37;;;;;;;;;;;;;;;24.78;100.00;98675.84;5034281;28;19925;-79
2023/08/01 07:51:05;;;;;;;;;;;;;;;24.67;100.00;98686.78;5034621;28;19928;-80
2023/08/01 07:53:30;;;;;;;;;;;;;;;24.59;100.00;98685.34;5032811;28;20298;-79
2023/08/01 07:55:56;;;;;;;;;;;;;;;24.62;100.00;98684.88;5036013;28;20016;-80
2023/08/01 07:58:21;;;;;;;;;;;;;;;24.65;100.00;98678.94;5032097;28;19983;-80
2023/08/01 08:00:47;;;;;;;;;;;;;;;24.75;100.00;98683.63;5031433;28;19921;-80
2023/08/01 08:03:14;;;;;;;;;;;;;;;24.80;100.00;98670.97;5027508;28;19927;-81
2023/08/01 08:05:40;;;;;;;;;;;;;;;24.85;100.00;98668.34;5017958;28;19922;-77
2023/08/01 08:08:06;;;;;;;;;;;;;;;24.79;100.00;98663.97;5021725;28;19921;-78
2023/08/01 08:10:34;;;;;;;;;;;;;;;24.87;100.00;98665.38;5019938;28;19965;-79
2023/08/01 08:12:59;;;;;;;;;;;;;;;24.97;100.00;98662.00;5015316;28;19925;-80
2023/08/01 08:15:26;;;;;;;;;;;;;;;25.10;100.00;98650.75;5027761;28;19925;-80
2023/08/01 08:17:51;;;;;;;;;;;;;;;25.22;100.00;98654.09;5034014;28;20587;-81
2023/08/01 08:20:17;;;;;;;;;;;;;;;25.25;100.00;98645.47;5031937;28;20056;-80
2023/08/01 08:22:42;;;;;;;;;;;;;;;25.31;100.00;98638.22;5028014;28;20431;-80
2023/08/01 08:25:08;;;;;;;;;;;;;;;25.37;100.00;98643.41;5025553;28;19924;-81
2023/08/01 08:27:36;;;;;;;;;;;;;;;25.27;100.00;98643.34;5033628;28;19929;-79
2023/08/01 08:30:02;;;;;;;;;;;;;;;25.15;100.00;98637.31;5005701;28;19921;-79
2023/08/01 08:32:28;;;;;;;;;;;;;;;25.18;100.00;98639.47;5020603;28;19926;-80
2023/08/01 08:34:53;;;;;;;;;;;;;;;25.29;100.00;98638.47;5003768;28;19953;-80
2023/08/01 08:37:19;;;;;;;;;;;;;;;25.40;100.00;98637.47;5028417;28;19936;-81
2023/08/01 08:39:44;;;;;;;;;;;;;;;25.50;100.00;98642.94;5034172;28;19993;-82
2023/08/01 08:42:10;;;;;;;;;;;;;;;25.58;100.00;98644.34;5033990;28;20017;-81
2023/08/01 08:44:42;;;;;;;;;;;;;;;25.61;100.00;98628.44;5033933;28;19921;-82
2023/08/01 08:47:08;;;;;;;;;;;;;;;25.66;100.00;98630.34;5032666;28;19968;-82
2023/08/01 08:49:34;;;;;;;;;;;;;;;25.72;100.00;98633.91;5028741;28;19922;-80
2023/08/01 08:51:59;;;;;;;;;;;;;;;25.80;100.00;98630.72;5030273;28;19931;-80
2023/08/01 08:54:25;;;;;;;;;;;;;;;25.85;100.00;98628.03;5033743;28;19933;-81
2023/08/01 08:56:51;;;;;;;;;;;;;;;25.88;100.00;98627.47;5026281;28;20416;-81
2023/08/01 08:59:16;;;;;;;;;;;;;;;25.83;100.00;98622.06;5033892;28;20074;-82
2023/08/01 09:01:42;;;;;;;;;;;;;;;25.80;100.00;98619.91;5034283;28;19928;-80
2023/08/01 09:04:08;;;;;;;;;;;;;;;25.90;100.00;98614.53;5025957;28;20060;-78
2023/08/01 09:06:48;;;;;;;;;;;;;;;26.05;100.00;98606.47;5031630;28;19921;-85
2023/08/01 09:09:14;;;;;;;;;;;;;;;26.17;100.00;98598.09;5036112;28;19948;-88
2023/08/01 09:11:42;;;;;;;;;;;;;;;26.17;100.00;98598.91;5037366;28;20385;-82
2023/08/01 09:14:08;;;;;;;;;;;;;;;26.23;100.00;98597.03;5037062;28;20376;-85
2023/08/01 09:16:36;;;;;;;;;;;;;;;26.33;100.00;98595.19;5043184;28;19924;-86
2023/08/01 09:19:02;;;;;;;;;;;;;;;26.42;100.00;98590.91;5037923;28;20357;-82
2023/08/01 09:21:34;;;;;;;;;;;;;;;26.42;100.00;98574.66;5029654;28;19928;-83
2023/08/01 09:24:13;;;;;;;;;;;;;;;26.47;100.00;98566.56;5039536;28;19961;-83
2023/08/01 09:26:39;;;;;;;;;;;;;;;26.57;100.00;98575.78;5019867;28;20297;-83
2023/08/01 09:29:04;;;;;;;;;;;;;;;26.69;100.00;98568.97;5041393;28;19921;-84
2023/08/01 09:31:31;;;;;;;;;;;;;;;26.80;100.00;98564.41;5039015;28;19975;-83
2023/08/01 09:33:56;;;;;;;;;;;;;;;26.88;100.00;98569.28;5033413;28;19928;-83
2023/08/01 09:36:23;;;;;;;;;;;;;;;26.95;100.00;98575.25;5030316;28;19921;-80
2023/08/01 09:38:50;;;;;;;;;;;;;;;27.00;100.00;98572.53;5012467;28;20301;-79
2023/08/01 09:41:19;;;;;;;;;;;;;;;27.04;100.00;98579.00;5033160;28;20353;-80
2023/08/01 09:43:46;;;;;;;;;;;;;;;27.12;100.00;98578.47;5033460;28;19992;-79
2023/08/01 09:46:11;;;;;;;;;;;;;;;27.21;100.00;98576.84;5032972;28;20319;-78
2023/08/01 09:48:37;;;;;;;;;;;;;;;27.25;100.00;98556.22;5034437;28;20027;-82
2023/08/01 09:51:06;;;;;;;;;;;;;;;27.30;100.00;98558.91;5032167;28;19928;-79
2023/08/01 09:53:32;;;;;;;;;;;;;;;27.36;100.00;98570.56;5033914;28;20378;-79
2023/08/01 09:55:59;;;;;;;;;;;;;;;27.41;100.00;98575.13;5033680;28;19988;-80
2023/08/01 09:58:28;;;;;;;;;;;;;;;27.39;100.00;98558.38;5034110;28;19921;-79
2023/08/01 10:00:53;;;;;;;;;;;;;;;27.45;100.00;98549.91;5026158;28;19944;-79
2023/08/01 10:03:19;;;;;;;;;;;;;;;27.53;100.00;98551.28;5033439;28;19933;-78
2023/08/01 10:05:45;;;;;;;;;;;;;;;27.52;100.00;98555.06;5034775;28;19921;-80
2023/08/01 10:08:11;;;;;;;;;;;;;;;27.47;100.00;98555.06;5033165;28;20311;-78
2023/08/01 10:10:37;;;;;;;;;;;;;;;27.51;100.00;98548.06;5033948;28;20008;-79
2023/08/01 10:13:03;;;;;;;;;;;;;;;27.56;100.00;98539.91;5033132;28;19921;-79
2023/08/01 10:15:28;;;;;;;;;;;;;;;27.60;100.00;98535.56;5033878;28;19924;-78
2023/08/01 10:17:54;;;;;;;;;;;;;;;27.51;100.00;98535.31;5034585;28;19921;-79
2023/08/01 10:20:21;;;;;;;;;;;;;;;27.47;100.00;98519.84;5034384;28;19932;-80
2023/08/01 10:22:49;;;;;;;;;;;;;;;27.53;100.00;98518.78;5033097;28;19917;-79
2023/08/01 10:25:16;;;;;;;;;;;;;;;27.55;100.00;98505.78;5033877;28;20303;-78
2023/08/01 10:27:41;;;;;;;;;;;;;;;27.63;100.00;98513.28;5033941;28;19921;-78
2023/08/01 10:30:09;;;;;;;;;;;;;;;27.71;100.00;98515.44;5034562;28;19917;-78
2023/08/01 10:32:38;;;;;;;;;;;;;;;27.75;100.00;98505.66;5034350;28;19921;-78
2023/08/01 10:35:05;;;;;;;;;;;;;;;27.79;100.00;98501.31;5033391;28;19917;-79
2023/08/01 10:37:40;;;;;;;;;;;;;;;27.86;100.00;98496.41;5032429;28;20340;-78
2023/08/01 10:40:06;;;;;;;;;;;;;;;27.94;100.00;98493.06;5032654;28;19917;-79
2023/08/01 10:42:43;;;;;;;;;;;;;;;27.94;100.00;98498.50;5033350;28;20008;-80
2023/08/01 10:45:20;;;;;;;;;;;;;;;28.00;100.00;98491.94;5033107;28;20316;-79
2023/08/01 10:47:45;;;;;;;;;;;;;;;28.05;100.00;98491.91;5032842;28;19983;-79
2023/08/01 10:50:15;;;;;;;;;;;;;;;28.11;100.00;98482.66;5032359;28;19925;-82
2023/08/01 10:52:41;;;;;;;;;;;;;;;28.08;100.00;98483.22;5032076;28;19971;-81
2023/08/01 10:55:08;;;;;;;;;;;;;;;28.14;100.00;98477.78;5031763;28;19925;-81
2023/08/01 10:57:35;;;;;;;;;;;;;;;28.13;100.00;98471.56;5032646;28;20299;-81
2023/08/01 11:00:01;;;;;;;;;;;;;;;28.17;100.00;98469.06;5030391;28;19921;-79
2023/08/01 11:02:27;;;;;;;;;;;;;;;28.24;100.00;98469.56;5023234;28;19921;-81
2023/08/01 11:04:59;;;;;;;;;;;;;;;28.30;100.00;98457.59;5031241;28;19951;-80
2023/08/01 11:07:25;;;;;;;;;;;;;;;28.37;100.00;98452.66;5024869;28;20393;-80
2023/08/01 11:10:11;;;;;;;;;;;;;;;28.43;100.00;98451.50;5023711;28;20320;-80
2023/08/01 11:12:37;;;;;;;;;;;;;;;28.50;100.00;98452.00;5009755;28;20359;-78
2023/08/01 11:15:05;;;;;;;;;;;;;;;28.55;100.00;98454.66;5031175;28;20040;-77
2023/08/01 11:17:31;;;;;;;;;;;;;;;28.63;100.00;98439.66;5014030;28;19991;-78
2023/08/01 11:20:04;;;;;;;;;;;;;;;28.67;100.00;98449.66;5031398;28;20377;-79
2023/08/01 11:22:29;;;;;;;;;;;;;;;28.73;100.00;98453.13;5031364;28;19925;-78
2023/08/01 11:24:55;;;;;;;;;;;;;;;28.82;100.00;98454.94;5031421;28;19921;-80
2023/08/01 11:27:20;;;;;;;;;;;;;;;28.85;100.00;98451.66;5016031;28;19979;-77
2023/08/01 11:29:46;;;;;;;;;;;;;;;28.92;99.74;98449.38;5030584;28;20471;-79
2023/08/01 11:32:12;;;;;;;;;;;;;;;29.01;99.84;98446.06;5028556;28;20372;-79
2023/08/01 11:34:44;;;;;;;;;;;;;;;29.05;99.71;98447.09;5029505;28;19975;-81
2023/08/01 11:37:13;;;;;;;;;;;;;;;29.12;99.42;98447.53;5033434;28;19929;-80
2023/08/01 11:39:39;;;;;;;;;;;;;;;29.10;99.27;98438.91;5033833;28;19921;-81
2023/08/01 11:42:04;;;;;;;;;;;;;;;29.14;99.22;98435.31;5031853;28;19928;-81
2023/08/01 11:44:30;;;;;;;;;;;;;;;29.19;96.90;98443.38;5031713;28;19921;-81
2023/08/01 11:46:55;;;;;;;;;;;;;;;29.14;96.99;98434.50;5031638;28;19921;-81
2023/08/01 11:49:21;;;;;;;;;;;;;;;29.18;97.00;98430.09;5032010;28;19928;-80
2023/08/01 11:51:47;;;;;;;;;;;;;;;29.21;95.79;98424.09;5030778;28;19936;-82
2023/08/01 11:54:14;;;;;;;;;;;;;;;29.22;95.91;98431.13;5034401;28;19921;-84
2023/08/01 11:56:41;;;;;;;;;;;;;;;29.27;96.20;98433.78;5033977;28;19932;-82
2023/08/01 11:59:10;;;;;;;;;;;;;;;29.32;95.39;98436.44;5032661;28;19927;-82
2023/08/01 12:01:39;;;;;;;;;;;;;;;29.41;94.27;98429.28;5034254;28;20293;-82
2023/08/01 12:04:04;;;;;;;;;;;;;;;29.38;94.23;98424.44;5033631;28;19967;-82
2023/08/01 12:06:31;;;;;;;;;;;;;;;29.29;92.65;98415.28;5031444;28;20335;-81
2023/08/01 12:09:05;;;;;;;;;;;;;;;29.36;93.26;98421.19;5037436;28;19932;-82
2023/08/01 12:11:30;;;;;;;;;;;;;;;29.31;93.51;98404.94;5024637;28;19944;-84
2023/08/01 12:14:11;;;;;;;;;;;;;;;29.49;93.23;98409.59;5038399;28;19921;-84
2023/08/01 12:16:46;;;;;;;;;;;;;;;29.65;93.01;98402.03;5016289;28;20353;-82
2023/08/01 12:19:22;;;;;;;;;;;;;;;29.93;92.05;98400.25;5036783;28;20020;-81
2023/08/01 12:21:48;;;;;;;;;;;;;;;30.19;90.77;98406.09;5037766;28;20337;-82
2023/08/01 12:24:13;;;;;;;;;;;;;;;30.25;90.07;98405.72;5035733;28;20360;-82
2023/08/01 12:26:39;;;;;;;;;;;;;;;30.29;89.66;98395.03;5035615;28;19929;-82
2023/08/01 12:29:07;;;;;;;;;;;;;;;30.25;89.96;98394.84;5035667;28;19960;-81
2023/08/01 12:31:32;;;;;;;;;;;;;;;30.18;90.53;98394.41;5019559;28;19935;-81
2023/08/01 12:34:00;;;;;;;;;;;;;;;30.09;89.44;98397.03;5036446;28;20132;-80